Time;durP1;ratioP1;P1;durP2;ratioP2;P2;SDS_P1;SDS_P2;PMS_P1;PMS_P2;Temp;Humidity;BMP_temperature;BMP_pressure;BME280_temperature;BME280_humidity;BME280_pressure;Samples;Min_cycle;Max_cycle;Signal;HPM_P1;HPM_P2
2022/02/24 00:00:28;;;;;;;3.63;1.08;;;;;;;7.07;73.49;99499.16;4959610;28;20113;-52
2022/02/24 00:02:55;;;;;;;2.70;1.10;;;;;;;7.06;74.03;99497.44;4950486;28;20099;-51
2022/02/24 00:05:22;;;;;;;2.55;0.40;;;;;;;7.05;74.14;99494.00;4950118;28;20047;-48
2022/02/24 00:07:48;;;;;;;4.97;1.20;;;;;;;7.05;73.85;99486.25;4951165;28;20866;-53
2022/02/24 00:10:17;;;;;;;2.38;0.75;;;;;;;7.06;73.48;99484.56;4948961;28;20058;-51
2022/02/24 00:12:44;;;;;;;3.30;1.30;;;;;;;7.03;73.78;99479.41;4960627;28;20077;-55
2022/02/24 00:15:11;;;;;;;4.00;0.65;;;;;;;7.00;74.52;99474.22;4949641;28;20507;-53
2022/02/24 00:17:38;;;;;;;5.10;0.98;;;;;;;7.00;74.46;99472.53;4949235;28;20484;-50
2022/02/24 00:20:07;;;;;;;7.20;0.50;;;;;;;7.01;75.33;99475.94;4945890;28;20122;-51
2022/02/24 00:22:34;;;;;;;2.10;0.90;;;;;;;7.01;75.13;99473.38;4946922;28;20051;-51
2022/02/24 00:25:03;;;;;;;4.32;0.93;;;;;;;7.00;73.90;99463.94;4961227;28;20118;-49
2022/02/24 00:27:30;;;;;;;3.33;0.75;;;;;;;7.00;74.72;99463.94;4949974;28;20074;-53
2022/02/24 00:29:56;;;;;;;4.97;1.42;;;;;;;7.00;75.07;99454.50;4961676;28;20046;-48
2022/02/24 00:32:23;;;;;;;6.20;1.10;;;;;;;6.97;74.80;99461.34;4948273;28;20527;-49
2022/02/24 00:34:50;;;;;;;5.95;0.70;;;;;;;7.01;75.12;99460.50;4949650;28;20055;-50
2022/02/24 00:37:17;;;;;;;2.72;0.45;;;;;;;7.02;73.98;99462.22;4957656;28;20621;-50
2022/02/24 00:39:44;;;;;;;3.75;1.08;;;;;;;7.04;75.22;99452.78;4947890;28;20110;-52
2022/02/24 00:42:11;;;;;;;2.35;1.08;;;;;;;7.03;74.89;99458.78;4950044;28;20479;-50
2022/02/24 00:44:37;;;;;;;6.70;1.02;;;;;;;7.03;75.52;99444.19;4949080;28;20047;-51
2022/02/24 00:47:04;;;;;;;1.90;0.45;;;;;;;7.05;74.90;99441.63;4950355;28;20054;-51
2022/02/24 00:49:32;;;;;;;6.15;0.95;;;;;;;7.03;75.74;99433.03;4946432;28;20091;-52
2022/02/24 00:51:59;;;;;;;6.63;1.20;;;;;;;7.01;75.24;99434.75;4950427;28;20110;-53
2022/02/24 00:54:25;;;;;;;6.97;1.05;;;;;;;7.00;75.54;99427.88;4946203;28;20051;-51
2022/02/24 00:56:52;;;;;;;2.03;0.90;;;;;;;7.00;74.40;99427.88;4956575;28;20051;-49
2022/02/24 00:59:19;;;;;;;4.70;1.25;;;;;;;7.00;75.94;99427.88;4946068;28;20056;-52
2022/02/24 01:01:47;;;;;;;8.23;0.65;;;;;;;7.03;75.16;99422.75;4948135;28;20126;-54
2022/02/24 01:04:17;;;;;;;7.20;1.65;;;;;;;7.05;75.58;99415.88;4947965;28;20047;-51
2022/02/24 01:06:43;;;;;;;8.30;0.65;;;;;;;7.06;75.94;99413.28;4947014;29;20624;-55
2022/02/24 01:09:10;;;;;;;13.82;1.25;;;;;;;7.06;75.43;99415.03;4940667;28;20119;-55
2022/02/24 01:11:37;;;;;;;1.35;1.00;;;;;;;7.09;75.47;99411.59;4946102;28;20047;-51
2022/02/24 01:14:03;;;;;;;2.78;0.57;;;;;;;7.07;76.32;99414.16;4947810;28;20062;-51
2022/02/24 01:16:30;;;;;;;3.95;1.45;;;;;;;7.06;75.02;99415.88;4947437;28;20058;-53
2022/02/24 01:18:57;;;;;;;3.60;1.00;;;;;;;7.10;75.54;99409.03;4942936;28;20051;-54
2022/02/24 01:21:24;;;;;;;3.13;0.82;;;;;;;7.10;74.94;99423.59;4946166;28;20055;-56
2022/02/24 01:23:50;;;;;;;3.97;0.52;;;;;;;7.10;75.62;99439.94;4950873;28;20054;-54
2022/02/24 01:26:17;;;;;;;10.85;1.52;;;;;;;7.08;76.93;99441.63;4942739;28;20051;-55
2022/02/24 01:28:44;;;;;;;4.38;0.50;;;;;;;7.06;75.20;99423.59;4946553;28;20452;-53
2022/02/24 01:31:10;;;;;;;5.70;0.63;;;;;;;7.07;74.84;99419.31;4944838;28;20447;-51
2022/02/24 01:33:37;;;;;;;3.75;1.13;;;;;;;7.06;76.21;99417.59;4949416;28;20131;-52
2022/02/24 01:36:04;;;;;;;4.57;0.75;;;;;;;7.04;74.57;99409.00;4945767;28;20055;-53
2022/02/24 01:38:31;;;;;;;3.20;0.75;;;;;;;7.02;76.24;99405.56;4947635;28;20551;-48
2022/02/24 01:40:58;;;;;;;1.42;0.45;;;;;;;6.95;74.70;99391.81;4949227;28;20051;-53
2022/02/24 01:43:25;;;;;;;1.98;0.52;;;;;;;6.94;76.23;99378.09;4943127;28;20043;-50
2022/02/24 01:45:52;;;;;;;1.90;0.60;;;;;;;6.94;76.39;99382.38;4938137;28;20102;-50
2022/02/24 01:48:19;;;;;;;5.22;0.63;;;;;;;6.93;76.58;99373.78;4947909;28;20047;-55
2022/02/24 01:50:46;;;;;;;2.60;0.40;;;;;;;6.90;74.81;99366.09;4948099;28;20703;-53
2022/02/24 01:53:13;;;;;;;3.72;0.77;;;;;;;6.91;76.49;99370.38;4945897;28;20051;-51
2022/02/24 01:55:39;;;;;;;3.63;0.93;;;;;;;6.89;76.60;99366.09;4943704;28;20599;-50
2022/02/24 01:58:06;;;;;;;3.20;0.77;;;;;;;6.88;76.09;99362.63;4948317;28;20059;-52
2022/02/24 02:00:33;;;;;;;4.57;0.57;;;;;;;6.89;75.88;99354.06;4955254;28;20055;-52
2022/02/24 02:03:00;;;;;;;4.20;0.73;;;;;;;6.85;76.31;99361.78;4948255;28;20059;-50
2022/02/24 02:05:29;;;;;;;4.18;0.63;;;;;;;6.86;76.99;99358.34;4953132;28;20055;-53
2022/02/24 02:07:57;;;;;;;3.15;0.30;;;;;;;6.86;76.09;99348.91;4934029;28;20737;-49
2022/02/24 02:10:25;;;;;;;3.90;0.63;;;;;;;6.84;77.18;99350.63;4943265;28;20051;-54
2022/02/24 02:12:53;;;;;;;1.50;0.40;;;;;;;6.84;76.36;99348.06;4947636;28;20050;-52
2022/02/24 02:15:21;;;;;;;2.38;0.40;;;;;;;6.84;76.44;99334.31;4937485;28;20483;-52
2022/02/24 02:17:48;;;;;;;6.30;0.65;;;;;;;6.80;75.78;99326.56;4948459;28;20059;-55
2022/02/24 02:20:16;;;;;;;2.28;0.40;;;;;;;6.81;76.60;99324.88;4939679;28;20130;-51
2022/02/24 02:22:43;;;;;;;4.85;0.65;;;;;;;6.78;77.28;99320.59;4934530;28;20047;-54
2022/02/24 02:25:10;;;;;;;2.97;0.38;;;;;;;6.77;75.89;99310.28;4940744;28;20507;-52
2022/02/24 02:27:39;;;;;;;2.75;0.63;;;;;;;6.76;76.50;99308.56;4941233;28;20043;-57
2022/02/24 02:30:08;;;;;;;3.28;0.45;;;;;;;6.75;76.10;99309.44;4944772;28;20051;-47
2022/02/24 02:32:35;;;;;;;3.35;0.70;;;;;;;6.74;77.39;99312.84;4941128;28;20109;-53
2022/02/24 02:35:03;;;;;;;1.45;0.70;;;;;;;6.75;76.93;99301.72;4945219;28;20102;-56
2022/02/24 02:37:29;;;;;;;3.20;0.65;;;;;;;6.72;76.61;99294.84;4946319;28;20109;-51
2022/02/24 02:39:56;;;;;;;2.30;0.65;;;;;;;6.71;77.60;99293.13;4943044;28;20447;-51
2022/02/24 02:42:23;;;;;;;2.20;0.40;;;;;;;6.73;76.22;99290.56;4943479;28;20051;-54
2022/02/24 02:44:49;;;;;;;3.58;0.50;;;;;;;6.73;76.42;99280.25;4943721;28;20089;-53
2022/02/24 02:47:17;;;;;;;0.63;0.30;;;;;;;6.72;76.63;99284.53;4946027;28;20587;-50
2022/02/24 02:49:43;;;;;;;3.15;0.68;;;;;;;6.73;76.69;99275.13;4944059;28;20054;-55
2022/02/24 02:52:11;;;;;;;3.15;0.65;;;;;;;6.74;77.06;99277.69;4946292;28;20039;-48
2022/02/24 02:54:38;;;;;;;3.85;0.75;;;;;;;6.74;76.39;99272.53;4958823;28;20119;-51
2022/02/24 02:57:04;;;;;;;5.07;0.50;;;;;;;6.75;76.91;99278.56;4945140;28;20467;-52
2022/02/24 02:59:32;;;;;;;2.05;0.40;;;;;;;6.76;77.48;99264.81;4945493;28;20059;-54
2022/02/24 03:02:01;;;;;;;2.40;0.38;;;;;;;6.76;76.37;99259.69;4944281;28;20380;-52
2022/02/24 03:04:28;;;;;;;1.30;0.40;;;;;;;6.76;76.00;99275.97;4944946;28;20047;-51
2022/02/24 03:06:54;;;;;;;3.78;0.65;;;;;;;6.77;77.62;99262.25;4947317;28;20098;-52
2022/02/24 03:09:21;;;;;;;3.70;0.50;;;;;;;6.77;76.07;99258.81;4947264;28;20051;-56
2022/02/24 03:11:48;;;;;;;2.83;0.50;;;;;;;6.78;77.04;99268.25;4947647;28;20515;-53
2022/02/24 03:14:14;;;;;;;2.65;0.50;;;;;;;6.78;76.75;99268.25;4942361;28;20070;-52
2022/02/24 03:16:41;;;;;;;2.33;0.45;;;;;;;6.78;77.26;99273.38;4965172;28;20055;-55
2022/02/24 03:19:11;;;;;;;2.85;0.30;;;;;;;6.82;75.99;99275.09;4953901;28;20498;-55
2022/02/24 03:21:37;;;;;;;1.75;0.38;;;;;;;6.84;76.95;99283.69;4951718;28;20050;-56
2022/02/24 03:24:05;;;;;;;0.38;0.30;;;;;;;6.76;76.45;99293.13;4950286;28;20153;-55
2022/02/24 03:26:37;;;;;;;1.58;0.28;;;;;;;6.67;75.99;99281.97;4950566;28;20055;-51
2022/02/24 03:29:03;;;;;;;1.27;0.82;;;;;;;6.54;75.42;99283.69;4948344;28;20106;-52
2022/02/24 03:31:30;;;;;;;1.33;0.32;;;;;;;6.47;76.36;99268.22;4949458;28;20047;-54
2022/02/24 03:33:57;;;;;;;1.25;0.38;;;;;;;6.39;76.46;99265.66;4948714;28;20051;-53
2022/02/24 03:36:23;;;;;;;0.50;0.50;;;;;;;6.32;74.85;99264.78;4948927;28;20055;-53
2022/02/24 03:38:50;;;;;;;1.70;0.25;;;;;;;6.23;74.74;99272.47;4947319;28;20546;-48
2022/02/24 03:41:17;;;;;;;1.75;0.45;;;;;;;6.20;75.33;99264.72;4949376;28;20047;-51
2022/02/24 03:43:44;;;;;;;0.65;0.65;;;;;;;6.17;75.95;99251.03;4949484;28;20080;-50
2022/02/24 03:46:11;;;;;;;1.27;0.17;;;;;;;6.11;74.98;99256.16;4947855;28;20047;-52
2022/02/24 03:48:38;;;;;;;1.30;0.20;;;;;;;6.10;74.48;99249.28;4946547;29;20157;-48
2022/02/24 03:51:05;;;;;;;1.92;0.45;;;;;;;6.06;75.54;99241.56;4946665;28;20083;-52
2022/02/24 03:53:32;;;;;;;1.48;0.30;;;;;;;6.05;76.11;99233.00;4943895;28;20114;-52
2022/02/24 03:55:59;;;;;;;3.20;0.70;;;;;;;6.05;76.18;99225.28;4948649;28;20063;-51
2022/02/24 03:58:27;;;;;;;1.30;0.50;;;;;;;6.05;75.74;99204.72;4948989;28;20051;-50
2022/02/24 04:00:53;;;;;;;0.65;0.25;;;;;;;6.00;76.34;99199.53;4946976;28;20051;-49
2022/02/24 04:03:24;;;;;;;;;;;;;;;5.94;75.83;99188.38;4944983;28;20055;-50
2022/02/24 04:05:51;;;;;;;0.47;0.35;;;;;;;5.98;75.27;99184.97;4947047;28;20016;-49
2022/02/24 04:08:18;;;;;;;2.63;0.20;;;;;;;5.98;74.84;99177.25;4947373;29;20047;-52
2022/02/24 04:10:45;;;;;;;2.38;0.70;;;;;;;5.99;74.91;99178.97;4959033;28;20440;-52
2022/02/24 04:13:12;;;;;;;0.45;0.13;;;;;;;5.99;75.79;99174.69;4956420;28;20483;-47
2022/02/24 04:15:39;;;;;;;0.95;0.32;;;;;;;5.98;74.54;99165.25;4944395;28;20104;-51
2022/02/24 04:18:07;;;;;;;1.15;0.13;;;;;;;5.97;75.35;99152.38;4945920;28;20047;-50
2022/02/24 04:20:34;;;;;;;2.42;0.73;;;;;;;5.97;75.27;99160.09;4950806;28;20051;-54
2022/02/24 04:23:00;;;;;;;2.20;0.65;;;;;;;5.96;75.68;99159.25;4945741;28;20527;-53
2022/02/24 04:25:27;;;;;;;1.10;0.30;;;;;;;5.95;74.56;99159.25;4951085;28;20487;-50
2022/02/24 04:27:53;;;;;;;1.48;0.55;;;;;;;5.92;74.38;99154.97;4946375;28;20051;-49
2022/02/24 04:30:21;;;;;;;1.05;0.20;;;;;;;5.92;74.50;99148.09;4951220;28;20238;-49
2022/02/24 04:32:48;;;;;;;1.85;0.30;;;;;;;5.91;74.44;99159.25;4946805;28;20581;-53
2022/02/24 04:35:15;;;;;;;4.05;0.98;;;;;;;5.89;75.58;99163.53;4950113;28;20051;-51
2022/02/24 04:37:42;;;;;;;2.70;0.20;;;;;;;5.85;74.60;99166.97;4946198;28;20102;-53
2022/02/24 04:40:12;;;;;;;1.67;0.52;;;;;;;5.83;75.24;99193.47;4947155;28;20491;-52
2022/02/24 04:42:38;;;;;;;0.50;0.40;;;;;;;5.81;75.80;99214.03;4943770;28;20055;-54
2022/02/24 04:45:05;;;;;;;0.52;0.32;;;;;;;5.81;75.09;99226.03;4945647;28;20055;-52
2022/02/24 04:47:32;;;;;;;2.95;0.20;;;;;;;5.79;75.08;99218.31;4951104;28;20091;-54
2022/02/24 04:49:59;;;;;;;0.90;0.50;;;;;;;5.77;75.53;99220.88;4949758;28;20713;-50
2022/02/24 04:52:25;;;;;;;2.35;0.20;;;;;;;5.74;74.65;99204.63;4944073;28;20051;-53
2022/02/24 04:54:52;;;;;;;2.95;0.35;;;;;;;5.73;75.07;99182.31;4950671;28;20463;-52
2022/02/24 04:57:20;;;;;;;1.80;0.22;;;;;;;5.72;74.83;99172.91;4969018;28;20051;-50
2022/02/24 04:59:46;;;;;;;1.65;0.68;;;;;;;5.70;75.68;99172.88;4962491;28;20071;-50
2022/02/24 05:02:13;;;;;;;1.42;0.22;;;;;;;5.69;75.35;99160.03;4953632;28;20066;-52
2022/02/24 05:04:40;;;;;;;2.30;0.80;;;;;;;5.65;74.34;99149.75;4966741;28;20134;-51
2022/02/24 05:07:06;;;;;;;2.58;0.22;;;;;;;5.62;74.24;99142.06;4964091;28;20054;-51
2022/02/24 05:09:33;;;;;;;1.67;0.60;;;;;;;5.59;74.15;99143.75;4968679;28;20058;-51
2022/02/24 05:11:59;;;;;;;3.00;0.63;;;;;;;5.55;75.08;99147.16;4963725;28;20046;-53
2022/02/24 05:14:27;;;;;;;1.38;0.55;;;;;;;5.52;74.16;99148.88;4966538;28;20065;-49
2022/02/24 05:16:54;;;;;;;3.00;0.52;;;;;;;5.49;74.59;99140.28;4963727;28;20046;-54
2022/02/24 05:19:22;;;;;;;0.73;0.22;;;;;;;5.44;74.01;99129.97;4965330;28;20050;-51
2022/02/24 05:21:48;;;;;;;1.70;0.65;;;;;;;5.43;74.94;99122.31;4964952;28;20043;-52
2022/02/24 05:24:15;;;;;;;2.42;0.63;;;;;;;5.41;74.88;99130.00;4962457;28;20091;-52
2022/02/24 05:26:42;;;;;;;0.50;0.30;;;;;;;5.42;74.79;99123.13;4950596;28;20051;-56
2022/02/24 05:29:09;;;;;;;2.35;0.73;;;;;;;5.41;73.90;99117.16;4961011;28;20046;-53
2022/02/24 05:31:36;;;;;;;0.93;0.80;;;;;;;5.43;74.28;99119.72;4956578;28;20502;-49
2022/02/24 05:34:03;;;;;;;0.57;0.55;;;;;;;5.44;74.04;99113.75;4964362;28;20499;-51
2022/02/24 05:36:29;;;;;;;0.93;0.30;;;;;;;5.45;74.54;99112.88;4963856;28;20051;-51
2022/02/24 05:38:56;;;;;;;1.95;0.35;;;;;;;5.45;74.41;99106.03;4966061;28;20466;-51
2022/02/24 05:41:24;;;;;;;1.58;0.20;;;;;;;5.47;74.86;99093.22;4965187;28;20640;-50
2022/02/24 05:43:51;;;;;;;0.75;0.50;;;;;;;5.47;75.00;99082.94;4963323;28;20411;-48
2022/02/24 05:46:18;;;;;;;0.75;0.20;;;;;;;5.48;74.78;99075.22;4961017;28;20498;-54
2022/02/24 05:48:45;;;;;;;0.95;0.63;;;;;;;5.48;74.72;99059.81;4959839;28;20082;-51
2022/02/24 05:51:12;;;;;;;1.45;0.63;;;;;;;5.50;74.70;99064.94;4959299;28;20439;-49
2022/02/24 05:53:39;;;;;;;1.00;0.57;;;;;;;5.49;74.75;99055.53;4959740;28;20512;-52
2022/02/24 05:56:06;;;;;;;1.40;0.75;;;;;;;5.49;74.70;99063.22;4964102;28;20054;-54
2022/02/24 05:58:33;;;;;;;0.73;0.43;;;;;;;5.51;74.46;99051.25;4965222;28;20097;-50
2022/02/24 06:00:59;;;;;;;0.98;0.17;;;;;;;5.52;74.99;99040.13;4961357;28;20585;-53
2022/02/24 06:03:26;;;;;;;0.65;0.47;;;;;;;5.52;74.75;99029.84;4963885;28;21435;-52
2022/02/24 06:05:56;;;;;;;1.98;1.30;;;;;;;5.51;73.75;99038.41;4960696;28;20051;-49
2022/02/24 06:08:23;;;;;;;0.40;0.20;;;;;;;5.52;74.65;99050.41;4961989;28;20101;-50
2022/02/24 06:10:50;;;;;;;4.57;0.57;;;;;;;5.52;74.80;99040.13;4963859;28;20054;-55
2022/02/24 06:13:17;;;;;;;3.47;0.65;;;;;;;5.51;73.97;99034.13;4961926;28;20046;-50
2022/02/24 06:15:44;;;;;;;2.33;0.55;;;;;;;5.50;74.41;99023.84;4963236;28;20042;-49
2022/02/24 06:18:16;;;;;;;1.40;0.68;;;;;;;5.50;73.84;99027.28;4962067;28;20050;-52
2022/02/24 06:20:42;;;;;;;2.65;0.25;;;;;;;5.49;74.60;99045.25;4959896;28;20112;-51
2022/02/24 06:23:09;;;;;;;1.45;0.70;;;;;;;5.48;73.92;99054.69;4962178;28;20101;-50
2022/02/24 06:25:35;;;;;;;6.68;0.68;;;;;;;5.43;74.17;99032.41;4958874;28;20059;-51
2022/02/24 06:28:02;;;;;;;0.52;0.30;;;;;;;5.32;74.46;99050.34;4957523;28;20054;-55
2022/02/24 06:30:29;;;;;;;0.88;0.25;;;;;;;5.12;74.65;99054.59;4960606;28;20097;-51
2022/02/24 06:32:55;;;;;;;1.10;0.20;;;;;;;4.98;74.76;99053.66;4961080;28;20109;-50
2022/02/24 06:35:22;;;;;;;0.55;0.55;;;;;;;4.85;74.87;99069.00;4966284;28;20119;-54
2022/02/24 06:37:49;;;;;;;0.35;0.35;;;;;;;4.61;75.45;99055.22;4963108;28;20548;-50
2022/02/24 06:40:15;;;;;;;2.60;0.10;;;;;;;4.56;74.73;99051.75;4963806;28;20495;-50
2022/02/24 06:42:42;;;;;;;1.35;0.20;;;;;;;4.36;74.60;99065.31;4961513;28;20872;-53
2022/02/24 06:45:09;;;;;;;0.88;0.10;;;;;;;4.30;74.78;99065.28;4962379;28;20113;-53
2022/02/24 06:47:36;;;;;;;0.82;0.32;;;;;;;4.19;74.77;99067.75;4958978;28;20589;-54
2022/02/24 06:50:04;;;;;;;0.35;0.35;;;;;;;4.10;75.05;99058.31;4957748;28;20046;-50
2022/02/24 06:52:31;;;;;;;0.10;0.10;;;;;;;4.01;74.88;99095.81;4962520;28;20085;-53
2022/02/24 06:55:00;;;;;;;0.20;0.13;;;;;;;3.89;75.37;99104.25;4963650;28;20058;-53
2022/02/24 06:57:27;;;;;;;0.93;0.22;;;;;;;3.82;75.24;99093.91;4960812;28;20047;-49
2022/02/24 06:59:54;;;;;;;2.88;0.30;;;;;;;3.76;75.37;99116.06;4960361;28;20109;-49
2022/02/24 07:02:21;;;;;;;1.17;0.38;;;;;;;3.76;75.04;99119.50;4960097;28;20050;-52
2022/02/24 07:04:49;;;;;;;0.65;0.57;;;;;;;3.72;74.73;99108.34;4960276;28;20062;-50
2022/02/24 07:07:17;;;;;;;1.05;0.22;;;;;;;3.74;74.57;99085.31;4965576;28;20105;-54
2022/02/24 07:09:44;;;;;;;1.83;0.45;;;;;;;3.75;74.56;99071.66;4961255;28;20055;-49
2022/02/24 07:12:10;;;;;;;0.73;0.47;;;;;;;3.74;75.18;99075.06;4958487;28;20141;-51
2022/02/24 07:14:37;;;;;;;0.32;0.20;;;;;;;3.76;75.85;99042.66;4960820;28;20403;-48
2022/02/24 07:17:06;;;;;;;1.55;0.50;;;;;;;3.75;75.32;99035.78;4960161;28;20050;-50
2022/02/24 07:19:33;;;;;;;2.40;0.90;;;;;;;3.76;74.59;99032.41;4962161;28;20370;-50
2022/02/24 07:22:00;;;;;;;1.33;0.82;;;;;;;3.77;75.52;99044.34;4951261;28;20094;-50
2022/02/24 07:24:27;;;;;;;1.65;0.80;;;;;;;3.79;75.19;99044.38;4961263;28;20039;-49
2022/02/24 07:26:53;;;;;;;2.45;1.48;;;;;;;3.80;75.29;99039.28;4960639;28;20480;-51
2022/02/24 07:29:20;;;;;;;2.20;1.17;;;;;;;3.82;74.82;99046.97;4964411;28;20057;-49
2022/02/24 07:31:48;;;;;;;2.10;1.00;;;;;;;3.84;75.09;99041.00;4958406;28;20040;-49
2022/02/24 07:34:15;;;;;;;2.50;1.85;;;;;;;3.88;75.09;99041.03;4957210;28;20051;-50
2022/02/24 07:36:43;;;;;;;1.50;0.85;;;;;;;3.87;74.79;99047.84;4960763;28;20173;-50
2022/02/24 07:39:12;;;;;;;1.17;0.80;;;;;;;3.89;75.17;99059.00;4960859;28;20043;-51
2022/02/24 07:41:40;;;;;;;1.85;0.73;;;;;;;3.91;75.24;99064.97;4960014;28;20058;-54
2022/02/24 07:44:07;;;;;;;1.02;0.45;;;;;;;3.90;74.99;99063.25;4962810;28;20110;-51
2022/02/24 07:46:35;;;;;;;3.58;1.25;;;;;;;3.94;75.19;99076.94;4959291;28;20070;-49
2022/02/24 07:49:02;;;;;;;1.63;0.73;;;;;;;3.94;75.42;99077.81;4953825;28;20130;-51
2022/02/24 07:51:29;;;;;;;1.25;0.50;;;;;;;3.95;75.18;99074.41;4960461;28;20046;-52
2022/02/24 07:53:55;;;;;;;0.77;0.52;;;;;;;3.96;74.60;99070.16;4960671;28;20042;-52
2022/02/24 07:56:22;;;;;;;2.08;0.57;;;;;;;3.96;75.47;99072.72;4952382;28;20427;-49
2022/02/24 07:58:49;;;;;;;1.33;0.43;;;;;;;3.95;75.04;99086.38;4941034;28;20051;-50
2022/02/24 08:01:17;;;;;;;0.88;0.77;;;;;;;3.95;75.33;99091.50;4947430;28;20085;-52
2022/02/24 08:03:44;;;;;;;1.38;0.30;;;;;;;3.97;75.14;99092.34;4951929;28;20057;-51
2022/02/24 08:06:10;;;;;;;2.15;0.73;;;;;;;4.00;75.18;99084.69;4945110;28;20138;-51
2022/02/24 08:08:37;;;;;;;5.60;2.28;;;;;;;3.99;75.30;99075.31;4947065;28;20675;-52
2022/02/24 08:11:04;;;;;;;4.82;1.60;;;;;;;4.01;75.83;99083.84;4947931;28;20503;-52
2022/02/24 08:13:30;;;;;;;3.47;1.10;;;;;;;4.03;75.29;99082.16;4945300;28;20114;-50
2022/02/24 08:15:57;;;;;;;3.67;0.93;;;;;;;4.05;75.44;99077.06;4946736;28;20754;-51
2022/02/24 08:18:24;;;;;;;2.08;0.95;;;;;;;4.08;75.27;99070.22;4950545;28;20039;-48
2022/02/24 08:20:50;;;;;;;2.95;0.95;;;;;;;4.10;74.94;99077.94;4949656;28;20059;-50
2022/02/24 08:23:18;;;;;;;2.33;0.45;;;;;;;4.07;74.95;99073.66;4949516;28;20043;-50
2022/02/24 08:25:45;;;;;;;4.95;0.45;;;;;;;4.10;75.33;99083.94;4948867;28;20058;-52
2022/02/24 08:28:12;;;;;;;2.40;1.05;;;;;;;4.09;75.58;99074.50;4949270;28;20110;-51
2022/02/24 08:30:38;;;;;;;1.67;0.50;;;;;;;4.10;75.31;99073.69;4950653;28;20483;-50
2022/02/24 08:33:05;;;;;;;2.88;0.90;;;;;;;4.13;75.53;99082.22;4949437;28;20045;-51
2022/02/24 08:35:32;;;;;;;2.75;1.05;;;;;;;4.16;75.00;99087.38;4946475;29;20054;-48
2022/02/24 08:37:59;;;;;;;1.65;1.00;;;;;;;4.16;75.29;99083.13;4940887;28;20056;-53
2022/02/24 08:40:27;;;;;;;2.22;1.27;;;;;;;4.16;75.59;99093.38;4940678;28;20447;-54
2022/02/24 08:42:54;;;;;;;1.42;0.85;;;;;;;4.16;75.21;99074.56;4948982;28;20051;-50
2022/02/24 08:45:21;;;;;;;2.67;1.13;;;;;;;4.17;75.09;99089.09;4944202;28;20039;-49
2022/02/24 08:47:48;;;;;;;5.03;1.00;;;;;;;4.13;75.67;99093.34;4951095;28;20105;-52
2022/02/24 08:50:16;;;;;;;26.35;5.13;;;;;;;4.16;75.15;99102.75;4944360;28;20050;-53
2022/02/24 08:53:00;;;;;;;18.38;4.95;;;;;;;4.14;75.44;99119.81;4946687;28;20051;-49
2022/02/24 08:55:29;;;;;;;16.17;4.00;;;;;;;4.15;75.07;99122.41;4939991;28;20488;-47
2022/02/24 08:57:57;;;;;;;5.60;1.75;;;;;;;4.16;75.41;99128.38;4938662;28;20055;-48
2022/02/24 09:00:27;;;;;;;6.78;2.15;;;;;;;4.19;75.48;99118.16;4944954;28;20047;-48
2022/02/24 09:02:54;;;;;;;8.75;2.17;;;;;;;4.18;75.33;99129.25;4946764;28;20046;-49
2022/02/24 09:05:21;;;;;;;8.45;2.60;;;;;;;4.18;75.32;99121.56;4949335;28;20055;-48
2022/02/24 09:07:47;;;;;;;3.00;1.10;;;;;;;4.17;75.52;99119.84;4948319;28;20066;-50
2022/02/24 09:10:27;;;;;;;2.80;0.73;;;;;;;4.16;76.30;99118.13;4947559;28;20054;-46
2022/02/24 09:12:54;;;;;;;4.65;1.55;;;;;;;4.16;75.46;99103.63;4944629;28;20053;-48
2022/02/24 09:15:22;;;;;;;1.40;0.77;;;;;;;4.18;74.96;99111.31;4945542;28;20058;-52
2022/02/24 09:17:49;;;;;;;4.20;1.73;;;;;;;4.20;75.59;99109.63;4941946;28;20107;-53
2022/02/24 09:20:15;;;;;;;2.80;1.13;;;;;;;4.21;75.33;99109.66;4945420;28;20114;-50
2022/02/24 09:22:42;;;;;;;5.00;1.35;;;;;;;4.27;75.26;99105.41;4960268;28;20047;-50
2022/02/24 09:25:09;;;;;;;1.75;1.38;;;;;;;4.30;75.23;99116.56;4944831;28;20055;-50
2022/02/24 09:27:37;;;;;;;1.95;1.20;;;;;;;4.34;74.46;99128.53;4948679;28;20065;-49
2022/02/24 09:30:06;;;;;;;1.73;0.98;;;;;;;4.40;75.28;99126.88;4946461;28;20070;-47
2022/02/24 09:32:34;;;;;;;2.60;0.60;;;;;;;4.40;75.45;99127.75;4948263;28;20094;-49
2022/02/24 09:35:01;;;;;;;2.30;1.02;;;;;;;4.44;75.63;99124.34;4949279;28;20109;-49
2022/02/24 09:37:34;;;;;;;3.33;0.73;;;;;;;4.48;75.23;99135.47;4949958;28;20806;-49
2022/02/24 09:40:02;;;;;;;2.38;0.68;;;;;;;4.49;75.62;99116.66;4949748;28;20074;-47
2022/02/24 09:42:38;;;;;;;1.73;1.13;;;;;;;4.61;75.09;99121.91;4949162;29;20543;-47
2022/02/24 09:45:06;;;;;;;3.00;1.35;;;;;;;4.71;74.58;99114.25;4949072;28;20052;-49
2022/02/24 09:47:33;;;;;;;1.98;0.45;;;;;;;4.85;73.79;99114.31;4949225;28;20550;-46
2022/02/24 09:50:02;;;;;;;2.22;0.38;;;;;;;4.95;73.48;99118.66;4950331;28;20118;-49
2022/02/24 09:52:29;;;;;;;1.55;0.88;;;;;;;5.09;73.75;99118.72;4944591;28;20048;-52
2022/02/24 09:54:55;;;;;;;4.22;1.95;;;;;;;5.25;72.88;99118.81;4937970;28;20047;-49
2022/02/24 09:57:22;;;;;;;2.65;1.40;;;;;;;5.32;73.18;99130.81;4946090;28;20489;-46
2022/02/24 09:59:49;;;;;;;3.40;0.65;;;;;;;5.34;72.46;99128.25;4955189;28;20051;-50
2022/02/24 10:02:15;;;;;;;3.20;0.82;;;;;;;5.38;72.47;99137.69;4946310;28;20102;-52
2022/02/24 10:05:08;;;;;;;2.45;1.13;;;;;;;5.36;71.65;99140.25;4949513;28;20059;-50
2022/02/24 10:07:41;;;;;;;2.38;0.52;;;;;;;5.34;71.43;99144.50;4957197;28;20102;-52
2022/02/24 10:10:31;;;;;;;1.83;0.52;;;;;;;5.28;71.38;99135.06;4950416;28;20491;-50
2022/02/24 10:12:59;;;;;;;1.55;0.50;;;;;;;5.13;70.35;99132.44;4939706;28;20058;-47
2022/02/24 10:15:26;;;;;;;1.45;0.40;;;;;;;5.13;70.44;99141.00;4950296;28;20055;-52
2022/02/24 10:18:14;;;;;;;1.00;0.35;;;;;;;5.45;70.70;99142.00;4948312;28;20503;-50
2022/02/24 10:20:46;;;;;;;2.88;0.40;;;;;;;6.23;70.90;99149.03;4946733;28;20050;-49
2022/02/24 10:23:14;;;;;;;2.20;0.65;;;;;;;7.23;69.28;99146.31;4947281;28;20405;-52
2022/02/24 10:25:45;;;;;;;3.35;0.65;;;;;;;8.15;68.12;99144.09;4947162;28;20051;-51
2022/02/24 10:28:34;;;;;;;2.10;0.57;;;;;;;9.03;61.96;99133.88;4946442;28;20062;-52
2022/02/24 10:31:16;;;;;;;3.15;1.35;;;;;;;9.90;63.77;99142.25;4947573;28;20062;-49
2022/02/24 10:33:45;;;;;;;1.00;0.35;;;;;;;10.49;59.71;99151.72;4943471;28;20083;-53
2022/02/24 10:36:16;;;;;;;2.60;0.60;;;;;;;11.08;59.62;99159.31;4948690;28;20070;-50
2022/02/24 10:38:58;;;;;;;15.07;3.63;;;;;;;11.62;58.12;99158.22;4956647;28;20106;-53
2022/02/24 10:41:28;;;;;;;5.90;2.13;;;;;;;12.16;57.90;99161.38;4942694;28;20055;-51
2022/02/24 10:44:11;;;;;;;8.88;2.13;;;;;;;12.18;54.50;99148.34;4946168;28;20107;-52
2022/02/24 10:46:39;;;;;;;9.98;1.85;;;;;;;12.55;56.37;99163.03;4948045;28;20141;-50
2022/02/24 10:49:06;;;;;;;13.35;3.92;;;;;;;12.92;55.41;99166.44;4942422;28;20437;-54
2022/02/24 10:51:34;;;;;;;11.27;2.78;;;;;;;12.77;55.08;99167.69;4948367;28;20051;-56
2022/02/24 10:54:23;;;;;;;8.27;2.00;;;;;;;12.37;52.93;99173.88;4945713;28;20058;-48
2022/02/24 10:56:49;;;;;;;9.55;2.50;;;;;;;12.78;54.79;99177.19;4947308;29;20117;-53
2022/02/24 10:59:30;;;;;;;5.88;1.17;;;;;;;12.81;49.22;99178.84;4945511;28;20065;-45
2022/02/24 11:01:57;;;;;;;5.45;1.35;;;;;;;12.44;50.63;99184.09;4944284;28;20102;-49
2022/02/24 11:04:24;;;;;;;2.08;0.75;;;;;;;11.76;50.35;99193.38;4944942;28;20055;-48
2022/02/24 11:06:52;;;;;;;3.78;0.80;;;;;;;11.14;50.84;99188.56;4943691;29;20544;-49
2022/02/24 11:09:19;;;;;;;2.63;0.65;;;;;;;10.44;50.85;99194.06;4945465;28;20059;-49
2022/02/24 11:11:47;;;;;;;2.92;0.73;;;;;;;10.02;52.34;99203.28;4944793;28;20071;-48
2022/02/24 11:14:14;;;;;;;4.30;0.80;;;;;;;9.66;53.32;99201.16;4945069;28;20094;-49
2022/02/24 11:16:41;;;;;;;2.42;0.55;;;;;;;9.32;53.99;99196.41;4943090;28;20058;-46
2022/02/24 11:19:08;;;;;;;2.00;0.65;;;;;;;9.13;55.16;99201.78;4944290;28;20051;-50
2022/02/24 11:21:35;;;;;;;1.52;0.85;;;;;;;8.72;54.63;99196.97;4942229;28;20047;-50
2022/02/24 11:24:02;;;;;;;2.33;0.45;;;;;;;8.32;54.77;99212.78;4945159;28;20055;-51
2022/02/24 11:26:39;;;;;;;1.25;0.77;;;;;;;8.02;54.49;99204.34;4942513;28;20046;-45
2022/02/24 11:29:27;;;;;;;2.20;0.65;;;;;;;7.92;53.89;99222.47;4945753;28;20074;-48
2022/02/24 11:32:06;;;;;;;1.63;0.77;;;;;;;7.86;54.59;99211.34;4949812;28;20055;-49
2022/02/24 11:34:55;;;;;;;1.27;0.30;;;;;;;7.61;52.30;99214.88;4946633;28;20065;-47
2022/02/24 11:37:42;;;;;;;1.17;0.40;;;;;;;7.46;52.52;99219.22;4953181;28;20070;-52
2022/02/24 11:40:24;;;;;;;2.03;0.35;;;;;;;7.27;53.39;99214.97;4943979;28;20051;-49
2022/02/24 11:43:15;;;;;;;1.10;0.80;;;;;;;7.05;52.09;99227.88;4952962;28;20455;-49
2022/02/24 11:45:51;;;;;;;1.73;1.02;;;;;;;6.97;53.11;99237.34;4953781;28;20071;-52